sensor_id;sensor_type;location;lat;lon;timestamp;P1;durP1;ratioP1;P2;durP2;ratioP2
59856;SDS011;45733;52.668;6.860;2022-10-16T00:02:12;0.50;;;0.50;;
59856;SDS011;45733;52.668;6.860;2022-10-16T00:04:38;0.50;;;0.50;;
59856;SDS011;45733;52.668;6.860;2022-10-16T00:07:04;0.50;;;0.50;;
59856;SDS011;45733;52.668;6.860;2022-10-16T00:09:50;0.50;;;0.50;;
59856;SDS011;45733;52.668;6.860;2022-10-16T00:12:16;0.50;;;0.50;;
59856;SDS011;45733;52.668;6.860;2022-10-16T00:14:45;0.50;;;0.50;;
59856;SDS011;45733;52.668;6.860;2022-10-16T00:17:46;0.50;;;0.50;;
59856;SDS011;45733;52.668;6.860;2022-10-16T00:23:14;0.50;;;0.50;;
59856;SDS011;45733;52.668;6.860;2022-10-16T00:29:02;0.50;;;0.50;;
59856;SDS011;45733;52.668;6.860;2022-10-16T00:31:31;0.50;;;0.50;;
59856;SDS011;45733;52.668;6.860;2022-10-16T00:34:01;0.50;;;0.50;;
59856;SDS011;45733;52.668;6.860;2022-10-16T00:36:33;0.50;;;0.50;;
59856;SDS011;45733;52.668;6.860;2022-10-16T00:39:10;0.50;;;0.50;;
59856;SDS011;45733;52.668;6.860;2022-10-16T00:41:39;0.50;;;0.50;;
59856;SDS011;45733;52.668;6.860;2022-10-16T00:47:31;0.50;;;0.50;;
59856;SDS011;45733;52.668;6.860;2022-10-16T00:50:24;0.60;;;0.60;;
59856;SDS011;45733;52.668;6.860;2022-10-16T00:53:11;0.50;;;0.50;;
59856;SDS011;45733;52.668;6.860;2022-10-16T00:55:43;0.50;;;0.50;;
59856;SDS011;45733;52.668;6.860;2022-10-16T00:58:23;0.50;;;0.50;;
59856;SDS011;45733;52.668;6.860;2022-10-16T01:00:55;0.60;;;0.60;;
59856;SDS011;45733;52.668;6.860;2022-10-16T01:18:41;0.50;;;0.50;;
59856;SDS011;45733;52.668;6.860;2022-10-16T01:21:27;0.50;;;0.50;;
59856;SDS011;45733;52.668;6.860;2022-10-16T01:30:23;0.50;;;0.50;;
59856;SDS011;45733;52.668;6.860;2022-10-16T01:36:35;0.50;;;0.50;;
59856;SDS011;45733;52.668;6.860;2022-10-16T01:39:07;0.50;;;0.50;;
59856;SDS011;45733;52.668;6.860;2022-10-16T01:45:20;0.50;;;0.50;;
59856;SDS011;45733;52.668;6.860;2022-10-16T01:47:55;0.50;;;0.50;;
59856;SDS011;45733;52.668;6.860;2022-10-16T01:50:42;0.50;;;0.50;;
59856;SDS011;45733;52.668;6.860;2022-10-16T01:53:27;0.50;;;0.50;;
59856;SDS011;45733;52.668;6.860;2022-10-16T01:56:21;0.50;;;0.50;;
59856;SDS011;45733;52.668;6.860;2022-10-16T01:59:00;0.50;;;0.50;;
59856;SDS011;45733;52.668;6.860;2022-10-16T02:01:33;0.50;;;0.50;;
59856;SDS011;45733;52.668;6.860;2022-10-16T02:04:07;0.50;;;0.50;;
59856;SDS011;45733;52.668;6.860;2022-10-16T02:06:52;0.57;;;0.57;;
59856;SDS011;45733;52.668;6.860;2022-10-16T02:09:21;0.50;;;0.50;;
59856;SDS011;45733;52.668;6.860;2022-10-16T02:11:55;0.55;;;0.55;;
59856;SDS011;45733;52.668;6.860;2022-10-16T02:14:37;0.50;;;0.50;;
59856;SDS011;45733;52.668;6.860;2022-10-16T02:17:12;0.50;;;0.50;;
59856;SDS011;45733;52.668;6.860;2022-10-16T02:19:40;0.50;;;0.50;;
59856;SDS011;45733;52.668;6.860;2022-10-16T02:22:08;0.50;;;0.50;;
59856;SDS011;45733;52.668;6.860;2022-10-16T02:32:44;0.50;;;0.50;;
59856;SDS011;45733;52.668;6.860;2022-10-16T02:35:13;0.50;;;0.50;;
59856;SDS011;45733;52.668;6.860;2022-10-16T02:37:43;0.60;;;0.60;;
59856;SDS011;45733;52.668;6.860;2022-10-16T02:40:13;0.50;;;0.50;;
59856;SDS011;45733;52.668;6.860;2022-10-16T02:42:40;0.50;;;0.50;;
59856;SDS011;45733;52.668;6.860;2022-10-16T02:45:07;0.50;;;0.50;;
59856;SDS011;45733;52.668;6.860;2022-10-16T02:47:37;0.50;;;0.50;;
59856;SDS011;45733;52.668;6.860;2022-10-16T02:50:03;0.60;;;0.60;;
59856;SDS011;45733;52.668;6.860;2022-10-16T02:52:29;0.50;;;0.50;;
59856;SDS011;45733;52.668;6.860;2022-10-16T02:54:55;0.50;;;0.50;;
59856;SDS011;45733;52.668;6.860;2022-10-16T02:57:21;0.50;;;0.50;;
59856;SDS011;45733;52.668;6.860;2022-10-16T02:59:46;0.50;;;0.50;;
59856;SDS011;45733;52.668;6.860;2022-10-16T03:02:25;0.50;;;0.50;;
59856;SDS011;45733;52.668;6.860;2022-10-16T03:04:51;0.50;;;0.50;;
59856;SDS011;45733;52.668;6.860;2022-10-16T03:07:16;0.50;;;0.50;;
59856;SDS011;45733;52.668;6.860;2022-10-16T03:10:06;0.60;;;0.60;;
59856;SDS011;45733;52.668;6.860;2022-10-16T03:12:36;0.60;;;0.60;;
59856;SDS011;45733;52.668;6.860;2022-10-16T03:15:10;0.60;;;0.60;;
59856;SDS011;45733;52.668;6.860;2022-10-16T03:17:36;0.55;;;0.55;;
59856;SDS011;45733;52.668;6.860;2022-10-16T03:20:04;0.50;;;0.50;;
59856;SDS011;45733;52.668;6.860;2022-10-16T03:22:36;0.50;;;0.50;;
59856;SDS011;45733;52.668;6.860;2022-10-16T03:25:14;0.50;;;0.50;;
59856;SDS011;45733;52.668;6.860;2022-10-16T03:27:46;0.60;;;0.60;;
59856;SDS011;45733;52.668;6.860;2022-10-16T03:30:18;0.50;;;0.50;;
59856;SDS011;45733;52.668;6.860;2022-10-16T03:32:47;0.55;;;0.55;;
59856;SDS011;45733;52.668;6.860;2022-10-16T03:35:28;0.50;;;0.50;;
59856;SDS011;45733;52.668;6.860;2022-10-16T03:38:06;0.50;;;0.50;;
59856;SDS011;45733;52.668;6.860;2022-10-16T03:40:55;0.52;;;0.52;;
59856;SDS011;45733;52.668;6.860;2022-10-16T03:43:24;0.50;;;0.50;;
59856;SDS011;45733;52.668;6.860;2022-10-16T03:46:10;0.50;;;0.50;;
59856;SDS011;45733;52.668;6.860;2022-10-16T03:48:43;0.60;;;0.60;;
59856;SDS011;45733;52.668;6.860;2022-10-16T03:51:29;0.50;;;0.50;;
59856;SDS011;45733;52.668;6.860;2022-10-16T03:53:55;0.60;;;0.60;;
59856;SDS011;45733;52.668;6.860;2022-10-16T03:56:35;0.60;;;0.60;;
59856;SDS011;45733;52.668;6.860;2022-10-16T03:59:06;0.50;;;0.50;;
59856;SDS011;45733;52.668;6.860;2022-10-16T04:01:32;0.50;;;0.50;;
59856;SDS011;45733;52.668;6.860;2022-10-16T04:04:14;0.50;;;0.50;;
59856;SDS011;45733;52.668;6.860;2022-10-16T04:06:40;0.50;;;0.50;;
59856;SDS011;45733;52.668;6.860;2022-10-16T04:09:09;0.50;;;0.50;;
59856;SDS011;45733;52.668;6.860;2022-10-16T04:11:42;0.50;;;0.50;;
59856;SDS011;45733;52.668;6.860;2022-10-16T04:14:11;0.50;;;0.50;;
59856;SDS011;45733;52.668;6.860;2022-10-16T04:16:37;0.50;;;0.50;;
59856;SDS011;45733;52.668;6.860;2022-10-16T04:19:05;0.50;;;0.50;;
59856;SDS011;45733;52.668;6.860;2022-10-16T04:21:39;0.50;;;0.50;;
59856;SDS011;45733;52.668;6.860;2022-10-16T04:24:08;0.50;;;0.50;;
59856;SDS011;45733;52.668;6.860;2022-10-16T04:26:36;0.50;;;0.50;;
59856;SDS011;45733;52.668;6.860;2022-10-16T04:29:03;0.50;;;0.50;;
59856;SDS011;45733;52.668;6.860;2022-10-16T04:31:29;0.50;;;0.50;;
59856;SDS011;45733;52.668;6.860;2022-10-16T04:33:55;0.50;;;0.50;;
59856;SDS011;45733;52.668;6.860;2022-10-16T04:36:21;0.50;;;0.50;;
59856;SDS011;45733;52.668;6.860;2022-10-16T04:38:47;0.50;;;0.50;;
59856;SDS011;45733;52.668;6.860;2022-10-16T04:41:12;0.50;;;0.50;;
59856;SDS011;45733;52.668;6.860;2022-10-16T04:43:38;0.50;;;0.50;;
59856;SDS011;45733;52.668;6.860;2022-10-16T04:46:04;0.50;;;0.50;;
59856;SDS011;45733;52.668;6.860;2022-10-16T04:48:32;0.50;;;0.50;;
59856;SDS011;45733;52.668;6.860;2022-10-16T04:50:58;0.50;;;0.50;;
59856;SDS011;45733;52.668;6.860;2022-10-16T04:53:25;0.50;;;0.50;;
59856;SDS011;45733;52.668;6.860;2022-10-16T04:55:51;0.50;;;0.50;;
59856;SDS011;45733;52.668;6.860;2022-10-16T04:58:17;0.50;;;0.50;;
59856;SDS011;45733;52.668;6.860;2022-10-16T05:00:43;0.50;;;0.50;;
59856;SDS011;45733;52.668;6.860;2022-10-16T05:03:11;0.50;;;0.50;;
59856;SDS011;45733;52.668;6.860;2022-10-16T05:05:41;0.50;;;0.50;;
59856;SDS011;45733;52.668;6.860;2022-10-16T05:08:09;0.50;;;0.50;;
59856;SDS011;45733;52.668;6.860;2022-10-16T05:10:40;0.50;;;0.50;;
59856;SDS011;45733;52.668;6.860;2022-10-16T05:13:07;0.50;;;0.50;;
59856;SDS011;45733;52.668;6.860;2022-10-16T05:15:32;0.50;;;0.50;;
59856;SDS011;45733;52.668;6.860;2022-10-16T05:17:59;0.50;;;0.50;;
59856;SDS011;45733;52.668;6.860;2022-10-16T05:20:25;0.60;;;0.60;;
59856;SDS011;45733;52.668;6.860;2022-10-16T05:22:51;0.50;;;0.50;;
59856;SDS011;45733;52.668;6.860;2022-10-16T05:25:16;0.50;;;0.50;;
59856;SDS011;45733;52.668;6.860;2022-10-16T05:27:46;0.50;;;0.50;;
59856;SDS011;45733;52.668;6.860;2022-10-16T05:30:13;0.50;;;0.50;;
59856;SDS011;45733;52.668;6.860;2022-10-16T05:32:39;0.50;;;0.50;;
59856;SDS011;45733;52.668;6.860;2022-10-16T05:35:13;0.50;;;0.50;;
59856;SDS011;45733;52.668;6.860;2022-10-16T05:37:41;0.50;;;0.50;;
59856;SDS011;45733;52.668;6.860;2022-10-16T05:40:08;0.50;;;0.50;;
59856;SDS011;45733;52.668;6.860;2022-10-16T05:42:35;0.50;;;0.50;;
59856;SDS011;45733;52.668;6.860;2022-10-16T05:45:03;0.50;;;0.50;;
59856;SDS011;45733;52.668;6.860;2022-10-16T05:47:30;0.50;;;0.50;;
59856;SDS011;45733;52.668;6.860;2022-10-16T05:49:56;0.50;;;0.50;;
59856;SDS011;45733;52.668;6.860;2022-10-16T05:52:22;0.50;;;0.50;;
59856;SDS011;45733;52.668;6.860;2022-10-16T05:54:48;0.50;;;0.50;;
59856;SDS011;45733;52.668;6.860;2022-10-16T05:57:17;0.50;;;0.50;;
59856;SDS011;45733;52.668;6.860;2022-10-16T06:02:46;0.50;;;0.50;;
59856;SDS011;45733;52.668;6.860;2022-10-16T06:05:14;0.50;;;0.50;;
59856;SDS011;45733;52.668;6.860;2022-10-16T06:07:50;0.50;;;0.50;;
59856;SDS011;45733;52.668;6.860;2022-10-16T06:10:16;0.50;;;0.50;;
59856;SDS011;45733;52.668;6.860;2022-10-16T06:12:44;0.50;;;0.50;;
59856;SDS011;45733;52.668;6.860;2022-10-16T06:15:10;0.50;;;0.50;;
59856;SDS011;45733;52.668;6.860;2022-10-16T06:17:36;0.50;;;0.50;;
59856;SDS011;45733;52.668;6.860;2022-10-16T06:20:07;0.60;;;0.60;;
59856;SDS011;45733;52.668;6.860;2022-10-16T06:22:33;0.50;;;0.50;;
59856;SDS011;45733;52.668;6.860;2022-10-16T06:25:04;0.50;;;0.50;;
59856;SDS011;45733;52.668;6.860;2022-10-16T06:27:31;0.60;;;0.60;;
59856;SDS011;45733;52.668;6.860;2022-10-16T06:29:57;0.50;;;0.50;;
59856;SDS011;45733;52.668;6.860;2022-10-16T06:32:23;0.60;;;0.60;;
59856;SDS011;45733;52.668;6.860;2022-10-16T06:35:02;0.60;;;0.60;;
59856;SDS011;45733;52.668;6.860;2022-10-16T06:37:47;0.50;;;0.50;;
59856;SDS011;45733;52.668;6.860;2022-10-16T06:40:16;0.50;;;0.50;;
59856;SDS011;45733;52.668;6.860;2022-10-16T06:42:42;0.50;;;0.50;;
59856;SDS011;45733;52.668;6.860;2022-10-16T06:45:08;0.50;;;0.50;;
59856;SDS011;45733;52.668;6.860;2022-10-16T06:48:07;0.50;;;0.50;;
59856;SDS011;45733;52.668;6.860;2022-10-16T06:50:33;0.50;;;0.50;;
59856;SDS011;45733;52.668;6.860;2022-10-16T06:53:10;0.50;;;0.50;;
59856;SDS011;45733;52.668;6.860;2022-10-16T06:55:48;0.50;;;0.50;;
59856;SDS011;45733;52.668;6.860;2022-10-16T06:58:14;0.50;;;0.50;;
59856;SDS011;45733;52.668;6.860;2022-10-16T07:00:43;0.50;;;0.50;;
59856;SDS011;45733;52.668;6.860;2022-10-16T07:03:09;0.50;;;0.50;;
59856;SDS011;45733;52.668;6.860;2022-10-16T07:05:38;0.50;;;0.50;;
59856;SDS011;45733;52.668;6.860;2022-10-16T07:08:08;0.60;;;0.60;;
59856;SDS011;45733;52.668;6.860;2022-10-16T07:10:37;0.50;;;0.50;;
59856;SDS011;45733;52.668;6.860;2022-10-16T07:13:06;0.50;;;0.50;;
59856;SDS011;45733;52.668;6.860;2022-10-16T07:15:35;0.50;;;0.50;;
59856;SDS011;45733;52.668;6.860;2022-10-16T07:18:01;0.50;;;0.50;;
59856;SDS011;45733;52.668;6.860;2022-10-16T07:20:42;0.50;;;0.50;;
59856;SDS011;45733;52.668;6.860;2022-10-16T07:23:10;0.60;;;0.60;;
59856;SDS011;45733;52.668;6.860;2022-10-16T07:25:42;0.50;;;0.50;;
59856;SDS011;45733;52.668;6.860;2022-10-16T07:28:14;0.50;;;0.50;;
59856;SDS011;45733;52.668;6.860;2022-10-16T07:30:52;0.50;;;0.50;;
59856;SDS011;45733;52.668;6.860;2022-10-16T07:33:33;0.50;;;0.50;;
59856;SDS011;45733;52.668;6.860;2022-10-16T07:36:28;0.50;;;0.50;;
59856;SDS011;45733;52.668;6.860;2022-10-16T07:38:57;0.50;;;0.50;;
59856;SDS011;45733;52.668;6.860;2022-10-16T07:44:42;0.50;;;0.50;;
59856;SDS011;45733;52.668;6.860;2022-10-16T07:52:59;0.50;;;0.50;;
59856;SDS011;45733;52.668;6.860;2022-10-16T07:55:25;0.50;;;0.50;;
59856;SDS011;45733;52.668;6.860;2022-10-16T07:57:55;0.50;;;0.50;;
59856;SDS011;45733;52.668;6.860;2022-10-16T08:00:25;0.50;;;0.50;;
59856;SDS011;45733;52.668;6.860;2022-10-16T08:02:57;0.50;;;0.50;;
59856;SDS011;45733;52.668;6.860;2022-10-16T08:05:32;0.50;;;0.50;;
59856;SDS011;45733;52.668;6.860;2022-10-16T08:08:10;0.50;;;0.50;;
59856;SDS011;45733;52.668;6.860;2022-10-16T08:10:43;0.50;;;0.50;;
59856;SDS011;45733;52.668;6.860;2022-10-16T08:13:17;0.50;;;0.50;;
59856;SDS011;45733;52.668;6.860;2022-10-16T08:16:20;0.50;;;0.50;;
59856;SDS011;45733;52.668;6.860;2022-10-16T08:18:45;0.50;;;0.50;;
59856;SDS011;45733;52.668;6.860;2022-10-16T08:21:18;0.50;;;0.50;;
59856;SDS011;45733;52.668;6.860;2022-10-16T08:23:46;0.50;;;0.50;;
59856;SDS011;45733;52.668;6.860;2022-10-16T08:26:17;0.50;;;0.50;;
59856;SDS011;45733;52.668;6.860;2022-10-16T08:28:48;0.50;;;0.50;;
59856;SDS011;45733;52.668;6.860;2022-10-16T08:31:29;0.50;;;0.50;;
59856;SDS011;45733;52.668;6.860;2022-10-16T08:34:01;0.50;;;0.50;;
59856;SDS011;45733;52.668;6.860;2022-10-16T08:36:27;0.50;;;0.50;;
59856;SDS011;45733;52.668;6.860;2022-10-16T08:39:05;0.50;;;0.50;;
59856;SDS011;45733;52.668;6.860;2022-10-16T08:44:18;0.50;;;0.50;;
59856;SDS011;45733;52.668;6.860;2022-10-16T08:47:17;0.50;;;0.50;;
59856;SDS011;45733;52.668;6.860;2022-10-16T08:50:08;0.50;;;0.50;;
59856;SDS011;45733;52.668;6.860;2022-10-16T08:52:38;0.50;;;0.50;;
59856;SDS011;45733;52.668;6.860;2022-10-16T08:55:37;0.50;;;0.50;;
59856;SDS011;45733;52.668;6.860;2022-10-16T08:58:18;0.50;;;0.50;;
59856;SDS011;45733;52.668;6.860;2022-10-16T09:01:13;0.50;;;0.50;;
59856;SDS011;45733;52.668;6.860;2022-10-16T09:04:03;0.45;;;0.45;;
59856;SDS011;45733;52.668;6.860;2022-10-16T09:06:56;0.50;;;0.50;;
59856;SDS011;45733;52.668;6.860;2022-10-16T09:13:11;0.50;;;0.50;;
59856;SDS011;45733;52.668;6.860;2022-10-16T09:21:52;0.40;;;0.40;;
59856;SDS011;45733;52.668;6.860;2022-10-16T09:24:28;0.50;;;0.50;;
59856;SDS011;45733;52.668;6.860;2022-10-16T09:26:57;0.50;;;0.50;;
59856;SDS011;45733;52.668;6.860;2022-10-16T09:29:25;0.47;;;0.47;;
59856;SDS011;45733;52.668;6.860;2022-10-16T09:32:09;0.40;;;0.40;;
59856;SDS011;45733;52.668;6.860;2022-10-16T09:34:43;0.40;;;0.40;;
59856;SDS011;45733;52.668;6.860;2022-10-16T09:37:34;0.40;;;0.40;;
59856;SDS011;45733;52.668;6.860;2022-10-16T09:40:07;0.40;;;0.40;;
59856;SDS011;45733;52.668;6.860;2022-10-16T09:42:46;0.43;;;0.43;;
59856;SDS011;45733;52.668;6.860;2022-10-16T09:45:21;0.40;;;0.40;;
59856;SDS011;45733;52.668;6.860;2022-10-16T09:47:50;0.40;;;0.40;;
59856;SDS011;45733;52.668;6.860;2022-10-16T09:50:20;0.50;;;0.50;;
59856;SDS011;45733;52.668;6.860;2022-10-16T09:53:04;0.40;;;0.40;;
59856;SDS011;45733;52.668;6.860;2022-10-16T09:55:36;0.40;;;0.40;;
59856;SDS011;45733;52.668;6.860;2022-10-16T09:58:17;0.40;;;0.40;;
59856;SDS011;45733;52.668;6.860;2022-10-16T10:00:51;0.40;;;0.40;;
59856;SDS011;45733;52.668;6.860;2022-10-16T10:03:37;0.40;;;0.40;;
59856;SDS011;45733;52.668;6.860;2022-10-16T10:09:13;0.40;;;0.40;;
59856;SDS011;45733;52.668;6.860;2022-10-16T10:11:59;0.40;;;0.40;;
59856;SDS011;45733;52.668;6.860;2022-10-16T10:14:43;0.40;;;0.40;;
59856;SDS011;45733;52.668;6.860;2022-10-16T10:19:44;0.40;;;0.40;;
59856;SDS011;45733;52.668;6.860;2022-10-16T10:30:34;0.40;;;0.40;;
59856;SDS011;45733;52.668;6.860;2022-10-16T10:33:28;0.40;;;0.40;;
59856;SDS011;45733;52.668;6.860;2022-10-16T10:36:10;0.40;;;0.40;;
59856;SDS011;45733;52.668;6.860;2022-10-16T10:38:43;0.40;;;0.40;;
59856;SDS011;45733;52.668;6.860;2022-10-16T10:41:36;0.40;;;0.40;;
59856;SDS011;45733;52.668;6.860;2022-10-16T10:47:12;0.40;;;0.40;;
59856;SDS011;45733;52.668;6.860;2022-10-16T10:52:30;0.40;;;0.40;;
59856;SDS011;45733;52.668;6.860;2022-10-16T10:55:19;0.40;;;0.40;;
59856;SDS011;45733;52.668;6.860;2022-10-16T11:08:55;0.40;;;0.40;;
59856;SDS011;45733;52.668;6.860;2022-10-16T11:19:58;0.50;;;0.50;;
59856;SDS011;45733;52.668;6.860;2022-10-16T11:22:56;0.40;;;0.40;;
59856;SDS011;45733;52.668;6.860;2022-10-16T11:25:45;0.40;;;0.40;;
59856;SDS011;45733;52.668;6.860;2022-10-16T11:30:57;0.40;;;0.40;;
59856;SDS011;45733;52.668;6.860;2022-10-16T11:39:19;0.40;;;0.40;;
59856;SDS011;45733;52.668;6.860;2022-10-16T11:50:53;0.40;;;0.40;;
59856;SDS011;45733;52.668;6.860;2022-10-16T11:56:35;0.40;;;0.40;;
59856;SDS011;45733;52.668;6.860;2022-10-16T11:59:08;0.40;;;0.40;;
59856;SDS011;45733;52.668;6.860;2022-10-16T12:04:50;0.40;;;0.40;;
59856;SDS011;45733;52.668;6.860;2022-10-16T12:07:27;0.40;;;0.40;;
59856;SDS011;45733;52.668;6.860;2022-10-16T12:10:25;0.40;;;0.40;;
59856;SDS011;45733;52.668;6.860;2022-10-16T12:12:53;0.40;;;0.40;;
59856;SDS011;45733;52.668;6.860;2022-10-16T12:15:23;0.40;;;0.40;;
59856;SDS011;45733;52.668;6.860;2022-10-16T12:17:52;0.40;;;0.40;;
59856;SDS011;45733;52.668;6.860;2022-10-16T12:20:32;0.47;;;0.47;;
59856;SDS011;45733;52.668;6.860;2022-10-16T12:23:16;0.40;;;0.40;;
59856;SDS011;45733;52.668;6.860;2022-10-16T12:25:59;0.40;;;0.40;;
59856;SDS011;45733;52.668;6.860;2022-10-16T12:28:31;0.50;;;0.50;;
59856;SDS011;45733;52.668;6.860;2022-10-16T12:31:01;0.40;;;0.40;;
59856;SDS011;45733;52.668;6.860;2022-10-16T12:33:36;0.40;;;0.40;;
59856;SDS011;45733;52.668;6.860;2022-10-16T12:36:27;0.50;;;0.50;;
59856;SDS011;45733;52.668;6.860;2022-10-16T12:38:57;0.50;;;0.50;;
59856;SDS011;45733;52.668;6.860;2022-10-16T12:43:53;0.47;;;0.47;;
59856;SDS011;45733;52.668;6.860;2022-10-16T12:51:44;0.40;;;0.40;;
59856;SDS011;45733;52.668;6.860;2022-10-16T12:57:32;0.40;;;0.40;;
59856;SDS011;45733;52.668;6.860;2022-10-16T13:22:43;0.45;;;0.45;;
59856;SDS011;45733;52.668;6.860;2022-10-16T13:28:45;0.40;;;0.40;;
59856;SDS011;45733;52.668;6.860;2022-10-16T13:31:21;0.40;;;0.40;;
59856;SDS011;45733;52.668;6.860;2022-10-16T13:33:58;0.40;;;0.40;;
59856;SDS011;45733;52.668;6.860;2022-10-16T13:36:34;0.40;;;0.40;;
59856;SDS011;45733;52.668;6.860;2022-10-16T13:39:15;0.40;;;0.40;;
59856;SDS011;45733;52.668;6.860;2022-10-16T13:41:46;0.50;;;0.50;;
59856;SDS011;45733;52.668;6.860;2022-10-16T13:44:52;0.40;;;0.40;;
59856;SDS011;45733;52.668;6.860;2022-10-16T13:47:28;0.40;;;0.40;;
59856;SDS011;45733;52.668;6.860;2022-10-16T13:53:16;0.47;;;0.47;;
59856;SDS011;45733;52.668;6.860;2022-10-16T13:55:59;0.40;;;0.40;;
59856;SDS011;45733;52.668;6.860;2022-10-16T13:58:29;0.40;;;0.40;;
59856;SDS011;45733;52.668;6.860;2022-10-16T14:01:00;0.40;;;0.40;;
59856;SDS011;45733;52.668;6.860;2022-10-16T14:03:29;0.40;;;0.40;;
59856;SDS011;45733;52.668;6.860;2022-10-16T14:06:01;0.40;;;0.40;;
59856;SDS011;45733;52.668;6.860;2022-10-16T14:08:29;0.40;;;0.40;;
59856;SDS011;45733;52.668;6.860;2022-10-16T14:10:59;0.40;;;0.40;;
59856;SDS011;45733;52.668;6.860;2022-10-16T14:13:31;0.40;;;0.40;;
59856;SDS011;45733;52.668;6.860;2022-10-16T14:16:05;0.40;;;0.40;;
59856;SDS011;45733;52.668;6.860;2022-10-16T14:18:34;0.40;;;0.40;;
59856;SDS011;45733;52.668;6.860;2022-10-16T14:21:04;0.40;;;0.40;;
59856;SDS011;45733;52.668;6.860;2022-10-16T14:23:36;0.40;;;0.40;;
59856;SDS011;45733;52.668;6.860;2022-10-16T14:28:41;0.40;;;0.40;;
59856;SDS011;45733;52.668;6.860;2022-10-16T14:31:25;0.40;;;0.40;;
59856;SDS011;45733;52.668;6.860;2022-10-16T14:33:56;0.40;;;0.40;;
59856;SDS011;45733;52.668;6.860;2022-10-16T14:36:23;0.40;;;0.40;;
59856;SDS011;45733;52.668;6.860;2022-10-16T14:39:01;0.40;;;0.40;;
59856;SDS011;45733;52.668;6.860;2022-10-16T14:41:43;0.40;;;0.40;;
59856;SDS011;45733;52.668;6.860;2022-10-16T14:44:12;0.40;;;0.40;;
59856;SDS011;45733;52.668;6.860;2022-10-16T14:46:42;0.40;;;0.40;;
59856;SDS011;45733;52.668;6.860;2022-10-16T14:51:34;0.40;;;0.40;;
59856;SDS011;45733;52.668;6.860;2022-10-16T14:54:01;0.40;;;0.40;;
59856;SDS011;45733;52.668;6.860;2022-10-16T14:56:31;0.40;;;0.40;;
59856;SDS011;45733;52.668;6.860;2022-10-16T14:59:07;0.40;;;0.40;;
59856;SDS011;45733;52.668;6.860;2022-10-16T15:01:40;0.40;;;0.40;;
59856;SDS011;45733;52.668;6.860;2022-10-16T15:04:10;0.40;;;0.40;;
59856;SDS011;45733;52.668;6.860;2022-10-16T15:06:37;0.40;;;0.40;;
59856;SDS011;45733;52.668;6.860;2022-10-16T15:09:03;0.40;;;0.40;;
59856;SDS011;45733;52.668;6.860;2022-10-16T15:11:31;0.40;;;0.40;;
59856;SDS011;45733;52.668;6.860;2022-10-16T15:13:58;0.40;;;0.40;;
59856;SDS011;45733;52.668;6.860;2022-10-16T15:16:24;0.40;;;0.40;;
59856;SDS011;45733;52.668;6.860;2022-10-16T15:18:50;0.50;;;0.50;;
59856;SDS011;45733;52.668;6.860;2022-10-16T15:21:26;0.50;;;0.50;;
59856;SDS011;45733;52.668;6.860;2022-10-16T15:23:54;0.50;;;0.50;;
59856;SDS011;45733;52.668;6.860;2022-10-16T15:26:22;0.50;;;0.50;;
59856;SDS011;45733;52.668;6.860;2022-10-16T15:28:51;0.50;;;0.50;;
59856;SDS011;45733;52.668;6.860;2022-10-16T15:31:17;0.50;;;0.50;;
59856;SDS011;45733;52.668;6.860;2022-10-16T15:33:44;0.50;;;0.50;;
59856;SDS011;45733;52.668;6.860;2022-10-16T15:36:16;0.50;;;0.50;;
59856;SDS011;45733;52.668;6.860;2022-10-16T15:38:42;0.50;;;0.50;;
59856;SDS011;45733;52.668;6.860;2022-10-16T15:41:09;0.50;;;0.50;;
59856;SDS011;45733;52.668;6.860;2022-10-16T15:43:35;0.47;;;0.47;;
59856;SDS011;45733;52.668;6.860;2022-10-16T15:46:05;0.50;;;0.50;;
59856;SDS011;45733;52.668;6.860;2022-10-16T15:48:33;0.50;;;0.50;;
59856;SDS011;45733;52.668;6.860;2022-10-16T15:50:59;0.50;;;0.50;;
59856;SDS011;45733;52.668;6.860;2022-10-16T15:53:29;0.50;;;0.50;;
59856;SDS011;45733;52.668;6.860;2022-10-16T15:55:55;0.47;;;0.47;;
59856;SDS011;45733;52.668;6.860;2022-10-16T15:58:21;0.40;;;0.40;;
59856;SDS011;45733;52.668;6.860;2022-10-16T16:00:54;0.45;;;0.45;;
59856;SDS011;45733;52.668;6.860;2022-10-16T16:03:20;0.40;;;0.40;;
59856;SDS011;45733;52.668;6.860;2022-10-16T16:05:47;0.50;;;0.50;;
59856;SDS011;45733;52.668;6.860;2022-10-16T16:08:12;0.50;;;0.50;;
59856;SDS011;45733;52.668;6.860;2022-10-16T16:10:38;0.50;;;0.50;;
59856;SDS011;45733;52.668;6.860;2022-10-16T16:13:04;0.50;;;0.50;;
59856;SDS011;45733;52.668;6.860;2022-10-16T16:15:30;0.50;;;0.50;;
59856;SDS011;45733;52.668;6.860;2022-10-16T16:17:56;0.50;;;0.50;;
59856;SDS011;45733;52.668;6.860;2022-10-16T16:20:22;0.60;;;0.60;;
59856;SDS011;45733;52.668;6.860;2022-10-16T16:22:48;0.50;;;0.50;;
59856;SDS011;45733;52.668;6.860;2022-10-16T16:25:14;0.45;;;0.45;;
59856;SDS011;45733;52.668;6.860;2022-10-16T16:27:40;0.50;;;0.50;;
59856;SDS011;45733;52.668;6.860;2022-10-16T16:30:09;0.50;;;0.50;;
59856;SDS011;45733;52.668;6.860;2022-10-16T16:32:36;0.50;;;0.50;;
59856;SDS011;45733;52.668;6.860;2022-10-16T16:35:02;0.50;;;0.50;;
59856;SDS011;45733;52.668;6.860;2022-10-16T16:37:29;0.50;;;0.50;;
59856;SDS011;45733;52.668;6.860;2022-10-16T16:39:54;0.50;;;0.50;;
59856;SDS011;45733;52.668;6.860;2022-10-16T16:42:23;0.50;;;0.50;;
59856;SDS011;45733;52.668;6.860;2022-10-16T16:44:52;0.50;;;0.50;;
59856;SDS011;45733;52.668;6.860;2022-10-16T16:47:19;0.50;;;0.50;;
59856;SDS011;45733;52.668;6.860;2022-10-16T16:49:45;0.50;;;0.50;;
59856;SDS011;45733;52.668;6.860;2022-10-16T16:52:14;0.50;;;0.50;;
59856;SDS011;45733;52.668;6.860;2022-10-16T16:54:40;0.50;;;0.50;;
59856;SDS011;45733;52.668;6.860;2022-10-16T16:57:05;0.50;;;0.50;;
59856;SDS011;45733;52.668;6.860;2022-10-16T16:59:32;0.50;;;0.50;;
59856;SDS011;45733;52.668;6.860;2022-10-16T17:02:02;0.50;;;0.50;;
59856;SDS011;45733;52.668;6.860;2022-10-16T17:04:28;0.50;;;0.50;;
59856;SDS011;45733;52.668;6.860;2022-10-16T17:06:55;0.50;;;0.50;;
59856;SDS011;45733;52.668;6.860;2022-10-16T17:09:21;0.50;;;0.50;;
59856;SDS011;45733;52.668;6.860;2022-10-16T17:11:47;0.50;;;0.50;;
59856;SDS011;45733;52.668;6.860;2022-10-16T17:14:14;0.50;;;0.50;;
59856;SDS011;45733;52.668;6.860;2022-10-16T17:16:42;0.50;;;0.50;;
59856;SDS011;45733;52.668;6.860;2022-10-16T17:19:10;0.50;;;0.50;;
59856;SDS011;45733;52.668;6.860;2022-10-16T17:21:49;0.50;;;0.50;;
59856;SDS011;45733;52.668;6.860;2022-10-16T17:24:16;0.50;;;0.50;;
59856;SDS011;45733;52.668;6.860;2022-10-16T17:26:43;0.50;;;0.50;;
59856;SDS011;45733;52.668;6.860;2022-10-16T17:29:13;0.50;;;0.50;;
59856;SDS011;45733;52.668;6.860;2022-10-16T17:31:39;0.50;;;0.50;;
59856;SDS011;45733;52.668;6.860;2022-10-16T17:34:06;0.40;;;0.40;;
59856;SDS011;45733;52.668;6.860;2022-10-16T17:36:34;0.50;;;0.50;;
59856;SDS011;45733;52.668;6.860;2022-10-16T17:39:03;0.40;;;0.40;;
59856;SDS011;45733;52.668;6.860;2022-10-16T17:41:31;0.40;;;0.40;;
59856;SDS011;45733;52.668;6.860;2022-10-16T17:43:57;0.50;;;0.50;;
59856;SDS011;45733;52.668;6.860;2022-10-16T17:46:25;0.50;;;0.50;;
59856;SDS011;45733;52.668;6.860;2022-10-16T17:48:52;0.50;;;0.50;;
59856;SDS011;45733;52.668;6.860;2022-10-16T17:51:22;0.50;;;0.50;;
59856;SDS011;45733;52.668;6.860;2022-10-16T17:53:51;0.50;;;0.50;;
59856;SDS011;45733;52.668;6.860;2022-10-16T17:56:18;0.50;;;0.50;;
59856;SDS011;45733;52.668;6.860;2022-10-16T17:58:47;0.50;;;0.50;;
59856;SDS011;45733;52.668;6.860;2022-10-16T18:03:56;0.50;;;0.50;;
59856;SDS011;45733;52.668;6.860;2022-10-16T18:06:26;0.50;;;0.50;;
59856;SDS011;45733;52.668;6.860;2022-10-16T18:08:52;0.40;;;0.40;;
59856;SDS011;45733;52.668;6.860;2022-10-16T18:11:19;0.50;;;0.50;;
59856;SDS011;45733;52.668;6.860;2022-10-16T18:13:53;0.50;;;0.50;;
59856;SDS011;45733;52.668;6.860;2022-10-16T18:16:24;0.50;;;0.50;;
59856;SDS011;45733;52.668;6.860;2022-10-16T18:18:52;0.50;;;0.50;;
59856;SDS011;45733;52.668;6.860;2022-10-16T18:21:21;0.50;;;0.50;;